Time;durP1;ratioP1;P1;durP2;ratioP2;P2;SDS_P1;SDS_P2;PMS_P1;PMS_P2;Temp;Humidity;BMP_temperature;BMP_pressure;BME280_temperature;BME280_humidity;BME280_pressure;Samples;Min_cycle;Max_cycle;Signal;HPM_P1;HPM_P2
2021/12/24 00:01:09;;;;;;;50.63;23.83;;;-0.50;99.90;;;;;;10230474;28;20047;-87
2021/12/24 00:06:12;;;;;;;50.47;23.60;;;-0.50;99.90;;;;;;10247018;28;20030;-88
2021/12/24 00:11:15;;;;;;;51.83;25.00;;;-0.50;99.90;;;;;;10252067;28;20119;-87
2021/12/24 00:16:24;;;;;;;52.13;26.83;;;-0.50;99.90;;;;;;10243594;28;20027;-89
2021/12/24 00:37:38;;;;;;;69.33;26.93;;;-0.50;99.90;;;;;;10253023;28;20039;-87
2021/12/24 00:42:43;;;;;;;55.33;26.40;;;-0.50;99.90;;;;;;10253121;29;20020;-87
2021/12/24 00:47:45;;;;;;;55.47;26.38;;;-0.40;99.90;;;;;;10254901;28;20494;-89
2021/12/24 00:57:54;;;;;;;59.90;28.27;;;-0.50;99.90;;;;;;10263771;28;20073;-88
2021/12/24 01:16:01;;;;;;;;;;;;;;;;;;;;;
2021/12/24 01:45:20;;;;;;;72.33;33.70;;;-0.40;99.90;;;;;;10061590;28;20073;-89
2021/12/24 01:50:22;;;;;;;66.57;31.83;;;-0.40;99.90;;;;;;10250205;28;20056;-89
2021/12/24 01:55:25;;;;;;;64.77;30.43;;;-0.40;99.90;;;;;;10233271;29;20038;-88
2021/12/24 02:00:33;;;;;;;71.90;32.33;;;-0.40;99.90;;;;;;10257449;28;20027;-86
2021/12/24 02:05:34;;;;;;;84.53;35.10;;;-0.40;99.90;;;;;;10250217;28;20497;-87
2021/12/24 02:10:35;;;;;;;79.57;34.10;;;-0.40;99.90;;;;;;10250567;28;20039;-86
2021/12/24 02:31:43;;;;;;;70.17;33.47;;;-0.30;99.90;;;;;;10275232;28;20043;-87
2021/12/24 02:36:44;;;;;;;70.97;34.27;;;-0.30;99.90;;;;;;10247429;29;20035;-87
2021/12/24 02:41:44;;;;;;;72.20;31.27;;;-0.20;99.90;;;;;;10266990;28;20038;-87
2021/12/24 02:47:10;;;;;;;71.37;32.20;;;-0.20;99.90;;;;;;10258040;28;20117;-87
2021/12/24 02:57:40;;;;;;;71.37;34.33;;;-0.20;99.90;;;;;;10240367;28;20074;-87
2021/12/24 03:02:46;;;;;;;73.33;32.40;;;-0.20;99.90;;;;;;10248234;28;20122;-86
2021/12/24 03:07:47;;;;;;;74.38;33.45;;;-0.10;99.90;;;;;;10230219;29;20031;-88
2021/12/24 03:12:51;;;;;;;70.17;32.10;;;-0.10;99.90;;;;;;10248779;28;20054;-88
2021/12/24 03:17:56;;;;;;;65.53;31.60;;;-0.10;99.90;;;;;;10249984;28;20026;-87
2021/12/24 03:23:21;;;;;;;73.67;32.20;;;0.00;99.90;;;;;;10249947;28;20035;-86
2021/12/24 03:28:22;;;;;;;68.77;32.00;;;0.00;99.90;;;;;;10242108;28;21939;-88
2021/12/24 03:33:23;;;;;;;66.47;31.67;;;0.00;99.90;;;;;;10259206;28;20129;-86
2021/12/24 03:38:24;;;;;;;69.57;32.50;;;0.10;99.90;;;;;;10247654;28;20066;-90
2021/12/24 03:43:25;;;;;;;68.73;32.67;;;0.10;99.90;;;;;;10246582;29;20055;-90
2021/12/24 03:58:58;;;;;;;67.77;31.53;;;0.20;99.90;;;;;;10260615;28;20051;-85
2021/12/24 04:03:59;;;;;;;67.50;32.50;;;0.20;99.90;;;;;;10259994;28;20471;-86
2021/12/24 04:09:04;;;;;;;74.97;33.70;;;0.20;99.90;;;;;;10255188;28;20039;-87
2021/12/24 04:14:05;;;;;;;68.03;32.37;;;0.30;99.90;;;;;;10256635;28;20035;-87
2021/12/24 04:29:31;;;;;;;79.53;36.67;;;0.50;99.90;;;;;;10254431;29;20576;-87
2021/12/24 04:34:34;;;;;;;72.50;34.40;;;0.50;99.90;;;;;;10260302;28;20042;-88
2021/12/24 05:06:09;;;;;;;102.27;46.07;;;0.60;99.90;;;;;;10213066;29;20047;-85
2021/12/24 05:11:13;;;;;;;113.07;45.63;;;0.70;99.90;;;;;;10229202;29;20039;-86
2021/12/24 05:26:36;;;;;;;122.63;49.50;;;0.70;99.90;;;;;;10213146;29;20043;-86
2021/12/24 05:31:37;;;;;;;121.00;49.60;;;0.70;99.90;;;;;;10217576;29;20038;-86
2021/12/24 05:36:38;;;;;;;144.27;52.73;;;0.70;99.90;;;;;;10198211;29;20391;-86
2021/12/24 05:41:39;;;;;;;149.60;53.20;;;0.70;99.90;;;;;;10233566;29;20039;-87
2021/12/24 05:46:40;;;;;;;148.97;53.63;;;0.70;99.90;;;;;;10214425;28;20400;-88
2021/12/24 05:51:41;;;;;;;121.90;47.87;;;0.80;99.90;;;;;;10244126;28;20039;-86
2021/12/24 05:56:42;;;;;;;121.67;48.77;;;0.80;99.90;;;;;;10273064;28;20053;-90
2021/12/24 06:01:43;;;;;;;118.37;44.50;;;0.80;99.90;;;;;;10233616;29;20031;-89
2021/12/24 06:06:43;;;;;;;116.57;47.53;;;0.80;99.90;;;;;;10250495;28;20039;-83
2021/12/24 06:11:44;;;;;;;116.87;43.47;;;0.80;99.90;;;;;;10250140;29;20503;-87
2021/12/24 06:16:51;;;;;;;114.37;43.23;;;0.80;99.90;;;;;;10251180;28;20019;-86
2021/12/24 06:21:52;;;;;;;137.80;48.90;;;0.80;99.90;;;;;;10232813;29;20038;-91
2021/12/24 06:26:53;;;;;;;117.37;44.67;;;0.80;99.90;;;;;;10248212;28;20407;-89
2021/12/24 06:31:53;;;;;;;117.07;43.80;;;0.90;99.90;;;;;;10249585;28;20047;-88
2021/12/24 06:36:55;;;;;;;145.37;55.13;;;0.90;99.90;;;;;;10231615;29;20059;-89
2021/12/24 06:41:56;;;;;;;126.27;48.23;;;0.90;99.90;;;;;;10227998;28;20181;-88
2021/12/24 06:46:56;;;;;;;131.60;49.90;;;0.90;99.90;;;;;;10214640;29;20528;-89
2021/12/24 06:51:57;;;;;;;150.33;57.97;;;1.00;99.90;;;;;;10249362;29;20059;-89
2021/12/24 06:56:58;;;;;;;163.97;61.57;;;1.00;99.90;;;;;;10231407;28;20608;-88
2021/12/24 07:01:59;;;;;;;121.40;50.03;;;1.00;99.90;;;;;;10228257;29;20031;-88
2021/12/24 07:07:00;;;;;;;137.37;53.47;;;1.10;99.90;;;;;;10226103;29;20019;-88
2021/12/24 07:12:00;;;;;;;124.13;47.10;;;1.20;99.90;;;;;;10222070;29;20035;-88
2021/12/24 07:17:01;;;;;;;137.60;50.37;;;1.10;99.90;;;;;;10234784;28;20657;-89
2021/12/24 07:22:02;;;;;;;142.47;54.13;;;1.20;99.90;;;;;;10212517;29;20109;-88
2021/12/24 07:27:07;;;;;;;136.73;53.43;;;1.30;99.90;;;;;;10238123;28;20031;-89
2021/12/24 07:32:08;;;;;;;143.53;57.00;;;1.40;99.90;;;;;;10227660;28;20046;-87
2021/12/24 07:37:08;;;;;;;160.57;62.90;;;1.50;99.90;;;;;;10224641;28;20049;-90
2021/12/24 07:42:09;;;;;;;159.70;64.70;;;1.60;99.90;;;;;;10239355;28;20126;-89
2021/12/24 07:47:16;;;;;;;156.97;64.93;;;1.60;99.90;;;;;;10214573;28;20394;-91
2021/12/24 07:52:17;;;;;;;162.53;61.13;;;1.70;99.90;;;;;;10221286;28;20190;-90
2021/12/24 07:57:18;;;;;;;165.83;73.90;;;1.70;99.90;;;;;;10222231;28;20029;-87
2021/12/24 08:02:24;;;;;;;207.57;83.03;;;1.80;99.90;;;;;;10252299;28;20039;-90
2021/12/24 08:07:27;;;;;;;171.60;66.97;;;1.80;99.90;;;;;;10244828;28;20049;-89
2021/12/24 08:12:28;;;;;;;191.83;74.97;;;1.80;99.90;;;;;;10233415;29;20399;-88
2021/12/24 08:17:28;;;;;;;173.23;66.87;;;1.80;99.90;;;;;;10227918;28;20029;-89
2021/12/24 08:22:29;;;;;;;166.03;64.40;;;1.90;99.90;;;;;;10205905;29;20036;-89
2021/12/24 08:27:30;;;;;;;229.07;86.57;;;1.90;99.90;;;;;;10240812;28;20054;-90
2021/12/24 08:32:30;;;;;;;150.73;59.70;;;2.00;99.90;;;;;;10206492;28;20047;-92
2021/12/24 08:37:31;;;;;;;131.63;55.97;;;2.00;99.90;;;;;;10245551;29;20079;-90
2021/12/24 08:42:32;;;;;;;149.40;56.93;;;2.10;99.90;;;;;;10246213;28;20035;-90
2021/12/24 08:47:33;;;;;;;162.77;63.83;;;2.10;99.90;;;;;;10240927;28;20046;-90
2021/12/24 08:52:49;;;;;;;155.43;63.00;;;2.10;99.90;;;;;;10253063;28;20133;-90
2021/12/24 08:57:50;;;;;;;137.73;57.53;;;2.20;99.90;;;;;;10233938;28;20038;-91
2021/12/24 09:02:50;;;;;;;147.93;54.37;;;2.20;99.90;;;;;;10276033;28;20030;-90
2021/12/24 09:07:51;;;;;;;159.10;62.20;;;2.30;99.90;;;;;;10284833;28;20062;-88
2021/12/24 09:12:52;;;;;;;152.77;58.37;;;2.40;99.90;;;;;;10256942;28;20043;-89
2021/12/24 09:17:53;;;;;;;145.63;59.47;;;2.40;99.90;;;;;;10244917;28;20073;-87
2021/12/24 09:22:55;;;;;;;146.03;60.20;;;2.40;99.90;;;;;;10236552;28;20110;-91
2021/12/24 09:27:57;;;;;;;134.17;51.47;;;2.40;99.90;;;;;;10218599;28;20098;-90
2021/12/24 09:32:58;;;;;;;131.67;52.17;;;2.50;99.90;;;;;;10219407;28;20495;-89
2021/12/24 09:37:59;;;;;;;148.23;55.33;;;2.50;99.90;;;;;;10248425;28;20035;-89
2021/12/24 09:43:00;;;;;;;134.83;53.37;;;2.50;99.90;;;;;;10249977;28;20051;-88
2021/12/24 09:48:01;;;;;;;119.30;52.07;;;2.60;99.90;;;;;;10246032;28;20395;-88
2021/12/24 09:53:02;;;;;;;148.93;58.33;;;2.70;99.90;;;;;;10233257;29;20057;-89
2021/12/24 09:58:03;;;;;;;155.73;61.43;;;2.70;99.90;;;;;;10248896;29;20042;-89
2021/12/24 10:03:05;;;;;;;180.37;68.20;;;2.80;99.90;;;;;;10237200;28;20043;-86
2021/12/24 10:08:19;;;;;;;186.17;69.70;;;2.80;99.90;;;;;;10221798;29;20038;-88
2021/12/24 10:13:47;;;;;;;174.43;69.03;;;2.80;99.90;;;;;;10232650;29;20467;-89
2021/12/24 10:18:50;;;;;;;158.10;61.80;;;2.80;99.90;;;;;;10230169;28;20039;-88
2021/12/24 10:23:51;;;;;;;135.80;58.13;;;2.90;99.90;;;;;;10242271;28;20476;-86
2021/12/24 10:29:03;;;;;;;169.80;63.47;;;3.00;99.90;;;;;;10249689;28;20039;-91
2021/12/24 10:34:13;;;;;;;210.77;77.93;;;3.00;99.90;;;;;;10241936;28;20035;-88
2021/12/24 10:39:13;;;;;;;197.83;80.93;;;3.10;99.90;;;;;;10247453;29;20023;-88
2021/12/24 10:44:20;;;;;;;198.70;77.10;;;3.10;99.90;;;;;;10234873;28;20775;-91
2021/12/24 10:49:35;;;;;;;212.07;80.90;;;3.20;99.90;;;;;;10230116;29;20047;-88
2021/12/24 10:54:50;;;;;;;202.15;75.07;;;3.30;99.90;;;;;;10264415;28;20058;-87
2021/12/24 10:59:54;;;;;;;233.17;83.37;;;3.30;99.90;;;;;;10247693;28;20427;-89
2021/12/24 11:04:55;;;;;;;182.37;72.67;;;3.30;99.90;;;;;;10230079;29;20067;-89
2021/12/24 11:10:19;;;;;;;197.63;74.93;;;3.30;99.90;;;;;;10214490;28;20039;-89
2021/12/24 11:15:33;;;;;;;189.97;76.07;;;3.40;99.90;;;;;;10250491;28;20114;-89
2021/12/24 11:20:34;;;;;;;212.67;81.27;;;3.40;99.90;;;;;;10229640;28;20023;-87
2021/12/24 11:25:44;;;;;;;179.20;73.50;;;3.40;99.90;;;;;;10235837;28;20495;-89
2021/12/24 11:30:54;;;;;;;242.40;94.27;;;3.40;99.90;;;;;;10224082;28;20039;-86
2021/12/24 11:35:57;;;;;;;205.87;81.53;;;3.50;99.90;;;;;;10241460;28;20023;-87
2021/12/24 11:41:00;;;;;;;186.57;76.47;;;3.50;99.90;;;;;;10204906;29;20501;-86
2021/12/24 11:46:04;;;;;;;236.13;85.80;;;3.50;99.90;;;;;;10236681;28;20133;-91
2021/12/24 11:51:40;;;;;;;226.57;88.73;;;3.50;99.90;;;;;;10224960;29;20715;-90
2021/12/24 11:56:43;;;;;;;180.93;74.53;;;3.60;99.90;;;;;;10242984;28;20030;-89
2021/12/24 12:01:54;;;;;;;220.40;84.10;;;3.70;99.90;;;;;;10221585;28;20756;-89
2021/12/24 12:07:26;;;;;;;238.23;90.43;;;3.70;99.90;;;;;;10219902;29;20553;-90
2021/12/24 12:25:06;;;;;;;195.10;75.10;;;3.60;99.90;;;;;;10072477;29;20063;-88
2021/12/24 12:30:22;;;;;;;185.43;72.10;;;3.70;99.90;;;;;;10244263;28;20045;-86
2021/12/24 12:35:36;;;;;;;166.10;68.22;;;3.70;99.90;;;;;;10243990;28;20035;-89
2021/12/24 12:40:37;;;;;;;177.50;75.13;;;3.70;99.90;;;;;;10227939;28;20039;-84
2021/12/24 12:45:41;;;;;;;131.83;53.97;;;3.80;99.90;;;;;;10230532;28;20387;-85
2021/12/24 12:50:52;;;;;;;168.00;74.47;;;3.80;99.90;;;;;;10224360;29;20532;-86
2021/12/24 12:56:17;;;;;;;120.40;53.30;;;3.90;99.90;;;;;;10244618;28;20035;-86
2021/12/24 13:01:20;;;;;;;122.27;50.90;;;3.90;99.90;;;;;;10239545;28;20443;-86
2021/12/24 13:12:05;;;;;;;136.87;55.87;;;4.00;99.90;;;;;;10239612;28;20118;-86
2021/12/24 13:17:19;;;;;;;120.67;52.10;;;4.10;99.90;;;;;;10240213;28;20625;-87
2021/12/24 13:22:32;;;;;;;120.17;50.27;;;4.10;99.90;;;;;;10225946;28;20091;-86
2021/12/24 13:27:38;;;;;;;152.97;67.93;;;4.10;99.90;;;;;;10234456;28;20086;-86
2021/12/24 13:32:49;;;;;;;121.57;58.17;;;4.10;99.90;;;;;;10229809;28;20095;-87
2021/12/24 13:38:26;;;;;;;119.43;56.73;;;4.20;99.90;;;;;;10231578;29;20118;-86
2021/12/24 13:43:39;;;;;;;93.20;44.70;;;4.20;99.90;;;;;;10237414;28;20118;-90
2021/12/24 13:55:26;;;;;;;98.33;42.47;;;4.20;99.90;;;;;;10250657;28;20051;-89
2021/12/24 14:00:30;;;;;;;111.30;47.50;;;4.20;99.90;;;;;;10236561;28;20016;-85
2021/12/24 14:05:31;;;;;;;82.53;34.93;;;4.30;99.90;;;;;;10230948;28;20031;-86
2021/12/24 14:10:32;;;;;;;98.47;42.60;;;4.30;99.90;;;;;;10212846;29;20045;-85
2021/12/24 14:15:46;;;;;;;93.50;42.43;;;4.40;99.90;;;;;;10237617;28;20475;-89
2021/12/24 14:21:44;;;;;;;85.10;39.53;;;4.40;99.90;;;;;;10238168;29;20027;-84
2021/12/24 14:26:19;;;;;;;100.97;40.90;;;4.40;99.90;;;;;;10248659;28;20075;-85
2021/12/24 14:31:20;;;;;;;96.70;41.83;;;4.40;99.90;;;;;;10264575;28;20538;-83
2021/12/24 14:36:21;;;;;;;114.20;44.63;;;4.40;99.90;;;;;;10239646;28;20023;-84
2021/12/24 14:41:23;;;;;;;99.07;45.17;;;4.50;99.90;;;;;;10250981;28;20031;-85
2021/12/24 14:46:25;;;;;;;112.47;51.00;;;4.40;99.90;;;;;;10261913;28;20035;-86
2021/12/24 14:51:29;;;;;;;124.47;55.37;;;4.40;99.90;;;;;;10221661;28;20042;-88
2021/12/24 14:56:37;;;;;;;140.07;63.50;;;4.40;99.90;;;;;;10236553;28;20093;-89
2021/12/24 15:01:42;;;;;;;113.67;52.87;;;4.50;99.90;;;;;;10239940;28;20118;-87
2021/12/24 15:06:53;;;;;;;131.70;59.25;;;4.50;99.90;;;;;;10223763;28;20039;-87
2021/12/24 15:11:55;;;;;;;127.43;58.97;;;4.60;99.90;;;;;;10256242;28;20039;-84
2021/12/24 15:16:55;;;;;;;112.90;51.60;;;4.60;99.90;;;;;;10248396;28;20039;-85
2021/12/24 15:21:56;;;;;;;114.00;53.40;;;4.70;99.90;;;;;;10239004;28;20037;-85
2021/12/24 15:26:58;;;;;;;100.20;48.23;;;4.70;99.90;;;;;;10209104;29;20557;-85
2021/12/24 15:31:59;;;;;;;97.73;46.30;;;4.70;99.90;;;;;;10219120;28;20107;-84
2021/12/24 15:37:00;;;;;;;92.87;42.63;;;4.80;99.90;;;;;;10246173;28;20095;-83
2021/12/24 15:42:00;;;;;;;97.37;44.53;;;4.80;99.90;;;;;;10224670;29;20656;-84
2021/12/24 15:47:01;;;;;;;147.10;62.23;;;4.80;99.90;;;;;;10247021;28;20514;-85
2021/12/24 15:52:04;;;;;;;130.63;60.93;;;4.80;99.90;;;;;;10229590;29;20154;-84
2021/12/24 15:57:05;;;;;;;138.13;63.47;;;4.90;99.90;;;;;;10246467;28;20595;-84
2021/12/24 16:02:07;;;;;;;104.13;50.07;;;4.90;99.90;;;;;;10246911;29;20365;-85
2021/12/24 16:07:08;;;;;;;92.60;44.60;;;4.90;99.90;;;;;;10246530;29;20476;-85
2021/12/24 16:12:10;;;;;;;94.70;44.10;;;5.00;99.90;;;;;;10229430;29;20031;-84
2021/12/24 16:17:11;;;;;;;74.97;36.97;;;5.00;99.90;;;;;;10245303;28;20090;-85
2021/12/24 16:22:12;;;;;;;85.20;40.27;;;5.00;99.90;;;;;;10246606;29;20034;-84
2021/12/24 16:27:13;;;;;;;92.67;44.90;;;5.10;99.90;;;;;;10246218;29;20077;-84
2021/12/24 16:32:15;;;;;;;96.60;43.80;;;5.00;99.90;;;;;;10246014;29;20582;-85
2021/12/24 16:37:16;;;;;;;100.43;47.33;;;5.10;99.90;;;;;;10246150;29;20023;-85
2021/12/24 16:42:17;;;;;;;79.37;40.77;;;5.10;99.90;;;;;;10244857;29;20114;-84
2021/12/24 16:47:18;;;;;;;66.40;34.43;;;5.00;99.90;;;;;;10254761;28;20061;-85
2021/12/24 16:52:19;;;;;;;69.57;33.80;;;5.10;99.90;;;;;;10267547;28;20401;-85
2021/12/24 16:57:20;;;;;;;61.80;31.03;;;5.10;99.90;;;;;;10263647;28;20031;-85
2021/12/24 17:02:20;;;;;;;61.00;30.97;;;5.10;99.90;;;;;;10268319;28;20038;-85
2021/12/24 17:07:21;;;;;;;59.40;32.10;;;5.10;99.90;;;;;;10285954;28;20581;-86
2021/12/24 17:12:22;;;;;;;63.30;27.80;;;5.10;99.90;;;;;;10291189;28;20034;-84
2021/12/24 17:17:27;;;;;;;57.50;28.93;;;5.10;99.90;;;;;;10275080;28;20038;-85
2021/12/24 17:22:28;;;;;;;60.57;28.73;;;5.20;99.90;;;;;;10292706;28;20026;-85
2021/12/24 17:27:29;;;;;;;45.80;24.47;;;5.20;99.90;;;;;;10275129;28;20027;-86
2021/12/24 17:32:29;;;;;;;44.50;23.63;;;5.20;99.90;;;;;;10291760;28;20483;-84
2021/12/24 17:37:30;;;;;;;47.53;24.30;;;5.20;99.90;;;;;;10291949;28;20035;-86
2021/12/24 17:42:32;;;;;;;53.77;22.67;;;5.20;99.90;;;;;;10292010;28;20538;-84
2021/12/24 17:47:33;;;;;;;39.30;18.43;;;5.20;99.90;;;;;;10291250;28;20066;-84
2021/12/24 17:52:34;;;;;;;40.27;19.70;;;5.20;99.90;;;;;;10273800;28;20450;-84
2021/12/24 17:57:35;;;;;;;55.33;25.43;;;5.30;99.90;;;;;;10272981;28;20045;-84
2021/12/24 18:02:38;;;;;;;32.27;16.87;;;5.20;99.90;;;;;;10290802;28;20475;-86
2021/12/24 18:07:39;;;;;;;92.20;31.80;;;5.20;99.90;;;;;;10260525;28;20091;-84
2021/12/24 18:12:40;;;;;;;37.57;18.30;;;5.20;99.90;;;;;;10258116;28;20114;-85
2021/12/24 18:17:41;;;;;;;39.13;15.87;;;5.30;99.90;;;;;;10250410;29;20395;-85
2021/12/24 18:22:42;;;;;;;98.77;32.13;;;5.30;99.90;;;;;;10250108;28;20039;-85
2021/12/24 18:27:44;;;;;;;56.77;22.83;;;5.30;99.90;;;;;;10249114;29;20027;-85
2021/12/24 18:32:49;;;;;;;39.57;17.27;;;5.40;99.90;;;;;;10250031;29;20050;-84
2021/12/24 18:43:04;;;;;;;27.43;13.47;;;5.40;99.90;;;;;;10250002;29;20383;-86
2021/12/24 18:48:06;;;;;;;25.30;13.23;;;5.40;99.90;;;;;;10264024;28;20521;-89
2021/12/24 18:53:07;;;;;;;35.20;14.87;;;5.50;99.90;;;;;;10288881;28;20403;-84
2021/12/24 18:58:08;;;;;;;35.67;16.27;;;5.50;99.90;;;;;;10288655;28;20035;-86
2021/12/24 19:03:10;;;;;;;32.33;15.60;;;5.50;99.90;;;;;;10287239;28;20459;-84
2021/12/24 19:08:11;;;;;;;39.77;17.20;;;5.50;99.90;;;;;;10270954;28;20023;-85
2021/12/24 19:13:12;;;;;;;30.23;14.53;;;5.50;99.90;;;;;;10288191;28;20046;-85
2021/12/24 19:18:13;;;;;;;35.47;14.70;;;5.40;99.90;;;;;;10288440;28;20037;-86
2021/12/24 19:23:14;;;;;;;48.47;19.20;;;5.40;99.90;;;;;;10288087;28;20129;-85
2021/12/24 19:28:15;;;;;;;41.57;18.20;;;5.40;99.90;;;;;;10288065;28;20505;-85
2021/12/24 19:33:17;;;;;;;44.93;20.93;;;5.40;99.90;;;;;;10287186;28;20047;-85
2021/12/24 19:38:18;;;;;;;49.60;23.93;;;5.40;99.90;;;;;;10280658;28;20104;-85
2021/12/24 19:43:18;;;;;;;81.83;34.97;;;5.40;99.90;;;;;;10283369;28;20486;-85
2021/12/24 19:48:19;;;;;;;60.87;27.67;;;5.40;99.90;;;;;;10287348;28;20055;-84
2021/12/24 19:53:20;;;;;;;48.80;22.07;;;5.40;99.90;;;;;;10272704;28;20046;-88
2021/12/24 19:58:21;;;;;;;28.93;14.30;;;5.40;99.90;;;;;;10255135;28;20038;-85
2021/12/24 20:03:21;;;;;;;14.53;7.43;;;5.20;99.90;;;;;;10270906;28;20023;-86
2021/12/24 20:08:22;;;;;;;11.50;5.20;;;4.60;99.90;;;;;;10270975;28;20038;-86
2021/12/24 20:13:23;;;;;;;7.60;3.77;;;4.10;99.90;;;;;;10246995;28;20069;-86
2021/12/24 20:18:25;;;;;;;7.57;3.93;;;3.70;99.90;;;;;;10260829;28;20030;-84
2021/12/24 20:23:25;;;;;;;11.17;5.47;;;3.30;99.90;;;;;;10233333;28;20026;-85
2021/12/24 20:29:19;;;;;;;13.67;6.00;;;3.00;99.90;;;;;;10253818;28;20031;-86
2021/12/24 20:34:20;;;;;;;11.70;6.37;;;2.80;99.90;;;;;;10221304;28;20039;-85
2021/12/24 20:39:21;;;;;;;17.83;7.80;;;2.60;99.90;;;;;;10232824;28;20031;-85
2021/12/24 20:44:22;;;;;;;14.87;7.30;;;2.50;99.90;;;;;;10238941;28;20047;-84
2021/12/24 20:49:23;;;;;;;8.80;4.27;;;2.30;99.90;;;;;;10248898;28;20052;-84
2021/12/24 20:54:27;;;;;;;11.37;4.70;;;2.10;99.90;;;;;;10244708;28;20027;-85
2021/12/24 20:59:28;;;;;;;8.77;3.77;;;1.90;99.90;;;;;;10233250;28;20039;-86
2021/12/24 21:04:28;;;;;;;8.17;3.93;;;1.80;99.90;;;;;;10246276;28;20506;-84
2021/12/24 21:09:29;;;;;;;9.50;4.43;;;1.60;99.90;;;;;;10227300;28;20135;-84
2021/12/24 21:14:30;;;;;;;12.43;5.30;;;1.50;99.90;;;;;;10234163;28;20541;-85
2021/12/24 21:19:31;;;;;;;20.60;7.33;;;1.40;99.90;;;;;;10241512;28;20030;-85
2021/12/24 21:24:37;;;;;;;20.40;8.70;;;1.30;99.90;;;;;;10241697;28;20031;-85
2021/12/24 21:29:38;;;;;;;23.83;9.48;;;1.30;99.90;;;;;;10232846;28;20435;-86
2021/12/24 21:34:39;;;;;;;17.87;8.00;;;1.20;99.90;;;;;;10246582;28;20046;-85
2021/12/24 21:39:41;;;;;;;13.63;5.90;;;1.20;99.90;;;;;;10236563;28;20034;-87
2021/12/24 21:44:49;;;;;;;10.73;5.67;;;1.20;99.90;;;;;;10248869;28;20087;-86
2021/12/24 21:49:50;;;;;;;23.73;7.83;;;1.10;99.90;;;;;;10250482;28;20059;-86
2021/12/24 21:54:52;;;;;;;14.83;5.40;;;1.10;99.90;;;;;;10238213;28;20540;-85
2021/12/24 21:59:52;;;;;;;11.17;4.90;;;1.10;99.90;;;;;;10249219;29;20031;-86
2021/12/24 22:10:16;;;;;;;12.17;5.60;;;1.10;99.90;;;;;;10246675;28;20425;-87
2021/12/24 22:15:16;;;;;;;16.27;7.60;;;1.10;99.90;;;;;;10243593;29;20809;-86
2021/12/24 22:20:17;;;;;;;13.87;6.20;;;1.10;99.90;;;;;;10232263;29;20051;-85
2021/12/24 22:25:18;;;;;;;13.23;5.87;;;1.10;99.90;;;;;;10245553;29;20027;-86
2021/12/24 22:30:18;;;;;;;12.77;6.60;;;1.10;99.90;;;;;;10232430;29;20039;-89
2021/12/24 22:35:20;;;;;;;11.50;6.47;;;1.10;99.90;;;;;;10244140;29;20023;-85
2021/12/24 22:40:21;;;;;;;12.30;5.43;;;1.10;99.90;;;;;;10230896;29;20027;-85
2021/12/24 22:45:22;;;;;;;14.37;6.37;;;1.10;99.90;;;;;;10249240;28;20027;-84
2021/12/24 22:50:23;;;;;;;13.87;7.10;;;1.10;99.90;;;;;;10226317;29;20530;-84
2021/12/24 22:55:26;;;;;;;26.13;11.27;;;1.10;99.90;;;;;;10192155;29;20028;-84
2021/12/24 23:00:48;;;;;;;18.20;8.67;;;1.10;99.90;;;;;;10247368;29;20041;-85
2021/12/24 23:05:49;;;;;;;22.00;9.17;;;1.10;99.90;;;;;;10236781;29;20099;-84
2021/12/24 23:10:54;;;;;;;21.00;8.83;;;1.10;99.90;;;;;;10229172;29;20066;-87
2021/12/24 23:15:55;;;;;;;22.80;9.43;;;1.00;99.90;;;;;;10248312;29;20108;-87
2021/12/24 23:20:58;;;;;;;17.33;9.00;;;1.00;99.90;;;;;;10246892;28;20047;-86
2021/12/24 23:26:00;;;;;;;14.77;7.70;;;1.10;99.90;;;;;;10248094;29;20036;-87
2021/12/24 23:31:01;;;;;;;23.57;10.47;;;1.00;99.90;;;;;;10247510;29;20364;-85
2021/12/24 23:36:02;;;;;;;26.47;11.87;;;1.00;99.90;;;;;;10247729;29;20035;-86
2021/12/24 23:41:03;;;;;;;35.50;15.57;;;1.00;99.90;;;;;;10247918;29;20031;-85
2021/12/24 23:46:10;;;;;;;28.40;14.17;;;1.00;99.90;;;;;;10246391;29;20497;-84
2021/12/24 23:51:12;;;;;;;32.27;14.80;;;1.00;99.90;;;;;;10245877;29;20074;-84
2021/12/24 23:56:14;;;;;;;31.27;14.33;;;1.00;99.90;;;;;;10210598;29;20471;-85
